<?xml version="1.0" encoding="UTF-8"?>
<gpx creator="Wikiloc - https://www.wikiloc.com" version="1.1" xmlns="http://www.topografix.com/GPX/1/1" xmlns:xsi="http://www.w3.org/2001/XMLSchema-instance" xsi:schemaLocation="http://www.topografix.com/GPX/1/1 http://www.topografix.com/GPX/1/1/gpx.xsd">
  <metadata>
    <name>Wikiloc - San Asensio, Briones, Davalillo, San Asensio</name>
    <link href="https://www.wikiloc.com/hiking-trails/san-asensio-briones-davalillo-san-asensio-141391421">
      <text>San Asensio, Briones, Davalillo, San Asensio on Wikiloc</text>
    </link>
    <time>2023-07-23T14:03:53Z</time>
  </metadata>
  <trk>
    <name>San Asensio, Briones, Davalillo, San Asensio</name>
    <cmt></cmt>
    <desc></desc>
    <trkseg>
      <trkpt lat="42.496834" lon="-2.749542">
        <ele>529.755</ele>
        <time>2023-07-23T09:48:17Z</time>
      </trkpt>
      <trkpt lat="42.497155" lon="-2.750058">
        <ele>525.907</ele>
        <time>2023-07-23T09:49:25Z</time>
      </trkpt>
      <trkpt lat="42.497909" lon="-2.750367">
        <ele>527.017</ele>
        <time>2023-07-23T09:50:23Z</time>
      </trkpt>
      <trkpt lat="42.498375" lon="-2.750287">
        <ele>521.409</ele>
        <time>2023-07-23T09:50:57Z</time>
      </trkpt>
      <trkpt lat="42.498396" lon="-2.750412">
        <ele>521.326</ele>
        <time>2023-07-23T09:51:02Z</time>
      </trkpt>
      <trkpt lat="42.499361" lon="-2.749834">
        <ele>523.199</ele>
        <time>2023-07-23T09:52:09Z</time>
      </trkpt>
      <trkpt lat="42.499573" lon="-2.749949">
        <ele>520.826</ele>
        <time>2023-07-23T09:52:21Z</time>
      </trkpt>
      <trkpt lat="42.499884" lon="-2.749910">
        <ele>517.128</ele>
        <time>2023-07-23T09:52:41Z</time>
      </trkpt>
      <trkpt lat="42.500121" lon="-2.749669">
        <ele>521.444</ele>
        <time>2023-07-23T09:54:05Z</time>
      </trkpt>
      <trkpt lat="42.501607" lon="-2.749392">
        <ele>517.436</ele>
        <time>2023-07-23T09:55:36Z</time>
      </trkpt>
      <trkpt lat="42.505669" lon="-2.748189">
        <ele>503.169</ele>
        <time>2023-07-23T10:00:31Z</time>
      </trkpt>
      <trkpt lat="42.505452" lon="-2.748327">
        <ele>501.927</ele>
        <time>2023-07-23T10:00:53Z</time>
      </trkpt>
      <trkpt lat="42.505798" lon="-2.748704">
        <ele>500.876</ele>
        <time>2023-07-23T10:01:21Z</time>
      </trkpt>
      <trkpt lat="42.505812" lon="-2.748604">
        <ele>499.618</ele>
        <time>2023-07-23T10:01:26Z</time>
      </trkpt>
      <trkpt lat="42.506480" lon="-2.749176">
        <ele>498.498</ele>
        <time>2023-07-23T10:02:24Z</time>
      </trkpt>
      <trkpt lat="42.507405" lon="-2.749587">
        <ele>500.017</ele>
        <time>2023-07-23T10:03:27Z</time>
      </trkpt>
      <trkpt lat="42.510191" lon="-2.751857">
        <ele>495.109</ele>
        <time>2023-07-23T10:06:53Z</time>
      </trkpt>
      <trkpt lat="42.510944" lon="-2.752335">
        <ele>494.992</ele>
        <time>2023-07-23T10:08:24Z</time>
      </trkpt>
      <trkpt lat="42.511048" lon="-2.752992">
        <ele>495.315</ele>
        <time>2023-07-23T10:09:28Z</time>
      </trkpt>
      <trkpt lat="42.510907" lon="-2.754349">
        <ele>498.182</ele>
        <time>2023-07-23T10:10:52Z</time>
      </trkpt>
      <trkpt lat="42.511573" lon="-2.755158">
        <ele>495.954</ele>
        <time>2023-07-23T10:12:32Z</time>
      </trkpt>
      <trkpt lat="42.512579" lon="-2.755217">
        <ele>496.480</ele>
        <time>2023-07-23T10:13:39Z</time>
      </trkpt>
      <trkpt lat="42.513235" lon="-2.755625">
        <ele>495.612</ele>
        <time>2023-07-23T10:14:24Z</time>
      </trkpt>
      <trkpt lat="42.515247" lon="-2.758001">
        <ele>492.555</ele>
        <time>2023-07-23T10:17:11Z</time>
      </trkpt>
      <trkpt lat="42.515320" lon="-2.758264">
        <ele>492.863</ele>
        <time>2023-07-23T10:17:25Z</time>
      </trkpt>
      <trkpt lat="42.515138" lon="-2.758808">
        <ele>492.282</ele>
        <time>2023-07-23T10:18:06Z</time>
      </trkpt>
      <trkpt lat="42.516204" lon="-2.759212">
        <ele>493.953</ele>
        <time>2023-07-23T10:19:39Z</time>
      </trkpt>
      <trkpt lat="42.516764" lon="-2.758332">
        <ele>494.804</ele>
        <time>2023-07-23T10:20:47Z</time>
      </trkpt>
      <trkpt lat="42.517188" lon="-2.758295">
        <ele>491.214</ele>
        <time>2023-07-23T10:21:14Z</time>
      </trkpt>
      <trkpt lat="42.519376" lon="-2.759635">
        <ele>480.309</ele>
        <time>2023-07-23T10:24:23Z</time>
      </trkpt>
      <trkpt lat="42.521260" lon="-2.761483">
        <ele>478.636</ele>
        <time>2023-07-23T10:28:04Z</time>
      </trkpt>
      <trkpt lat="42.522712" lon="-2.761795">
        <ele>475.629</ele>
        <time>2023-07-23T10:29:39Z</time>
      </trkpt>
      <trkpt lat="42.524219" lon="-2.761769">
        <ele>473.126</ele>
        <time>2023-07-23T10:31:13Z</time>
      </trkpt>
      <trkpt lat="42.525205" lon="-2.762019">
        <ele>469.728</ele>
        <time>2023-07-23T10:33:22Z</time>
      </trkpt>
      <trkpt lat="42.524484" lon="-2.761846">
        <ele>466.234</ele>
        <time>2023-07-23T10:35:48Z</time>
      </trkpt>
      <trkpt lat="42.524562" lon="-2.761818">
        <ele>466.696</ele>
        <time>2023-07-23T10:36:09Z</time>
      </trkpt>
      <trkpt lat="42.525404" lon="-2.762097">
        <ele>469.339</ele>
        <time>2023-07-23T10:37:07Z</time>
      </trkpt>
      <trkpt lat="42.526209" lon="-2.763011">
        <ele>463.087</ele>
        <time>2023-07-23T10:38:53Z</time>
      </trkpt>
      <trkpt lat="42.527755" lon="-2.763563">
        <ele>446.286</ele>
        <time>2023-07-23T10:42:19Z</time>
      </trkpt>
      <trkpt lat="42.528752" lon="-2.765206">
        <ele>459.214</ele>
        <time>2023-07-23T10:44:12Z</time>
      </trkpt>
      <trkpt lat="42.529123" lon="-2.765565">
        <ele>459.354</ele>
        <time>2023-07-23T10:44:42Z</time>
      </trkpt>
      <trkpt lat="42.529689" lon="-2.765944">
        <ele>462.309</ele>
        <time>2023-07-23T10:46:00Z</time>
      </trkpt>
      <trkpt lat="42.531239" lon="-2.766602">
        <ele>463.309</ele>
        <time>2023-07-23T10:47:59Z</time>
      </trkpt>
      <trkpt lat="42.533483" lon="-2.768340">
        <ele>461.592</ele>
        <time>2023-07-23T10:53:17Z</time>
      </trkpt>
      <trkpt lat="42.534184" lon="-2.769253">
        <ele>460.765</ele>
        <time>2023-07-23T10:54:21Z</time>
      </trkpt>
      <trkpt lat="42.534413" lon="-2.770307">
        <ele>460.692</ele>
        <time>2023-07-23T10:55:13Z</time>
      </trkpt>
      <trkpt lat="42.535625" lon="-2.773844">
        <ele>462.924</ele>
        <time>2023-07-23T10:58:22Z</time>
      </trkpt>
      <trkpt lat="42.536666" lon="-2.776186">
        <ele>467.730</ele>
        <time>2023-07-23T11:00:29Z</time>
      </trkpt>
      <trkpt lat="42.537921" lon="-2.778112">
        <ele>458.822</ele>
        <time>2023-07-23T11:02:54Z</time>
      </trkpt>
      <trkpt lat="42.539013" lon="-2.779455">
        <ele>457.255</ele>
        <time>2023-07-23T11:04:31Z</time>
      </trkpt>
      <trkpt lat="42.539266" lon="-2.779523">
        <ele>456.943</ele>
        <time>2023-07-23T11:04:48Z</time>
      </trkpt>
      <trkpt lat="42.540452" lon="-2.782097">
        <ele>461.272</ele>
        <time>2023-07-23T11:07:56Z</time>
      </trkpt>
      <trkpt lat="42.541242" lon="-2.781473">
        <ele>462.427</ele>
        <time>2023-07-23T11:09:02Z</time>
      </trkpt>
      <trkpt lat="42.541687" lon="-2.781520">
        <ele>460.968</ele>
        <time>2023-07-23T11:09:47Z</time>
      </trkpt>
      <trkpt lat="42.543932" lon="-2.780646">
        <ele>452.914</ele>
        <time>2023-07-23T11:12:18Z</time>
      </trkpt>
      <trkpt lat="42.544582" lon="-2.780271">
        <ele>454.209</ele>
        <time>2023-07-23T11:13:01Z</time>
      </trkpt>
      <trkpt lat="42.544606" lon="-2.779585">
        <ele>456.183</ele>
        <time>2023-07-23T11:13:33Z</time>
      </trkpt>
      <trkpt lat="42.544281" lon="-2.778296">
        <ele>459.226</ele>
        <time>2023-07-23T11:14:40Z</time>
      </trkpt>
      <trkpt lat="42.543722" lon="-2.777379">
        <ele>461.923</ele>
        <time>2023-07-23T11:15:57Z</time>
      </trkpt>
      <trkpt lat="42.542696" lon="-2.776492">
        <ele>456.825</ele>
        <time>2023-07-23T11:17:20Z</time>
      </trkpt>
      <trkpt lat="42.541413" lon="-2.775000">
        <ele>459.981</ele>
        <time>2023-07-23T11:19:16Z</time>
      </trkpt>
      <trkpt lat="42.541019" lon="-2.773480">
        <ele>463.983</ele>
        <time>2023-07-23T11:21:39Z</time>
      </trkpt>
      <trkpt lat="42.540352" lon="-2.768951">
        <ele>475.366</ele>
        <time>2023-07-23T11:25:27Z</time>
      </trkpt>
      <trkpt lat="42.540445" lon="-2.766933">
        <ele>477.424</ele>
        <time>2023-07-23T11:27:31Z</time>
      </trkpt>
      <trkpt lat="42.540358" lon="-2.765904">
        <ele>473.993</ele>
        <time>2023-07-23T11:28:18Z</time>
      </trkpt>
      <trkpt lat="42.540477" lon="-2.764805">
        <ele>462.067</ele>
        <time>2023-07-23T11:29:14Z</time>
      </trkpt>
      <trkpt lat="42.540026" lon="-2.763149">
        <ele>450.381</ele>
        <time>2023-07-23T11:30:54Z</time>
      </trkpt>
      <trkpt lat="42.540444" lon="-2.762821">
        <ele>447.619</ele>
        <time>2023-07-23T11:32:08Z</time>
      </trkpt>
      <trkpt lat="42.540592" lon="-2.762450">
        <ele>444.909</ele>
        <time>2023-07-23T11:32:29Z</time>
      </trkpt>
      <trkpt lat="42.540551" lon="-2.756778">
        <ele>440.337</ele>
        <time>2023-07-23T11:36:55Z</time>
      </trkpt>
      <trkpt lat="42.540254" lon="-2.755899">
        <ele>435.750</ele>
        <time>2023-07-23T11:37:42Z</time>
      </trkpt>
      <trkpt lat="42.540004" lon="-2.754205">
        <ele>433.657</ele>
        <time>2023-07-23T11:39:02Z</time>
      </trkpt>
      <trkpt lat="42.539414" lon="-2.752945">
        <ele>431.259</ele>
        <time>2023-07-23T11:41:55Z</time>
      </trkpt>
      <trkpt lat="42.539452" lon="-2.751606">
        <ele>440.815</ele>
        <time>2023-07-23T11:42:59Z</time>
      </trkpt>
      <trkpt lat="42.539715" lon="-2.750245">
        <ele>444.457</ele>
        <time>2023-07-23T11:44:13Z</time>
      </trkpt>
      <trkpt lat="42.539584" lon="-2.750195">
        <ele>443.630</ele>
        <time>2023-07-23T11:44:25Z</time>
      </trkpt>
      <trkpt lat="42.539364" lon="-2.750343">
        <ele>440.318</ele>
        <time>2023-07-23T11:44:49Z</time>
      </trkpt>
      <trkpt lat="42.539152" lon="-2.750091">
        <ele>448.097</ele>
        <time>2023-07-23T11:45:20Z</time>
      </trkpt>
      <trkpt lat="42.539041" lon="-2.748721">
        <ele>450.763</ele>
        <time>2023-07-23T11:47:30Z</time>
      </trkpt>
      <trkpt lat="42.538451" lon="-2.745614">
        <ele>458.944</ele>
        <time>2023-07-23T11:50:46Z</time>
      </trkpt>
      <trkpt lat="42.537642" lon="-2.743811">
        <ele>459.318</ele>
        <time>2023-07-23T11:52:31Z</time>
      </trkpt>
      <trkpt lat="42.537322" lon="-2.743301">
        <ele>462.309</ele>
        <time>2023-07-23T11:53:07Z</time>
      </trkpt>
      <trkpt lat="42.537011" lon="-2.743119">
        <ele>465.097</ele>
        <time>2023-07-23T11:53:37Z</time>
      </trkpt>
      <trkpt lat="42.536933" lon="-2.742776">
        <ele>462.680</ele>
        <time>2023-07-23T11:54:19Z</time>
      </trkpt>
      <trkpt lat="42.537044" lon="-2.742036">
        <ele>460.627</ele>
        <time>2023-07-23T11:55:52Z</time>
      </trkpt>
      <trkpt lat="42.536708" lon="-2.741299">
        <ele>459.819</ele>
        <time>2023-07-23T11:56:34Z</time>
      </trkpt>
      <trkpt lat="42.536744" lon="-2.740514">
        <ele>458.435</ele>
        <time>2023-07-23T11:57:17Z</time>
      </trkpt>
      <trkpt lat="42.537381" lon="-2.739400">
        <ele>458.347</ele>
        <time>2023-07-23T11:58:25Z</time>
      </trkpt>
      <trkpt lat="42.537757" lon="-2.737739">
        <ele>455.140</ele>
        <time>2023-07-23T11:59:54Z</time>
      </trkpt>
      <trkpt lat="42.537670" lon="-2.736560">
        <ele>463.298</ele>
        <time>2023-07-23T12:01:11Z</time>
      </trkpt>
      <trkpt lat="42.537860" lon="-2.735892">
        <ele>469.217</ele>
        <time>2023-07-23T12:01:48Z</time>
      </trkpt>
      <trkpt lat="42.537666" lon="-2.734268">
        <ele>475.113</ele>
        <time>2023-07-23T12:03:20Z</time>
      </trkpt>
      <trkpt lat="42.537719" lon="-2.734158">
        <ele>477.143</ele>
        <time>2023-07-23T12:03:30Z</time>
      </trkpt>
      <trkpt lat="42.537976" lon="-2.734137">
        <ele>484.307</ele>
        <time>2023-07-23T12:04:03Z</time>
      </trkpt>
      <trkpt lat="42.537301" lon="-2.733253">
        <ele>494.109</ele>
        <time>2023-07-23T12:05:15Z</time>
      </trkpt>
      <trkpt lat="42.537478" lon="-2.733254">
        <ele>495.522</ele>
        <time>2023-07-23T12:05:33Z</time>
      </trkpt>
      <trkpt lat="42.537385" lon="-2.733258">
        <ele>498.445</ele>
        <time>2023-07-23T12:11:23Z</time>
      </trkpt>
      <trkpt lat="42.537362" lon="-2.733065">
        <ele>495.432</ele>
        <time>2023-07-23T12:13:18Z</time>
      </trkpt>
      <trkpt lat="42.537396" lon="-2.733269">
        <ele>497.484</ele>
        <time>2023-07-23T12:16:10Z</time>
      </trkpt>
      <trkpt lat="42.537777" lon="-2.733272">
        <ele>500.550</ele>
        <time>2023-07-23T12:18:41Z</time>
      </trkpt>
      <trkpt lat="42.537808" lon="-2.733135">
        <ele>499.312</ele>
        <time>2023-07-23T12:19:46Z</time>
      </trkpt>
      <trkpt lat="42.537719" lon="-2.733206">
        <ele>499.385</ele>
        <time>2023-07-23T12:19:48Z</time>
      </trkpt>
      <trkpt lat="42.537625" lon="-2.733045">
        <ele>499.133</ele>
        <time>2023-07-23T12:19:59Z</time>
      </trkpt>
      <trkpt lat="42.537670" lon="-2.732848">
        <ele>499.952</ele>
        <time>2023-07-23T12:20:11Z</time>
      </trkpt>
      <trkpt lat="42.538282" lon="-2.732935">
        <ele>509.064</ele>
        <time>2023-07-23T12:22:43Z</time>
      </trkpt>
      <trkpt lat="42.538434" lon="-2.733096">
        <ele>513.506</ele>
        <time>2023-07-23T12:23:09Z</time>
      </trkpt>
      <trkpt lat="42.538577" lon="-2.732847">
        <ele>519.216</ele>
        <time>2023-07-23T12:23:49Z</time>
      </trkpt>
      <trkpt lat="42.538933" lon="-2.732667">
        <ele>538.309</ele>
        <time>2023-07-23T12:25:26Z</time>
      </trkpt>
      <trkpt lat="42.538997" lon="-2.732967">
        <ele>540.787</ele>
        <time>2023-07-23T12:25:58Z</time>
      </trkpt>
      <trkpt lat="42.539250" lon="-2.732505">
        <ele>540.030</ele>
        <time>2023-07-23T12:28:22Z</time>
      </trkpt>
      <trkpt lat="42.539202" lon="-2.732402">
        <ele>540.097</ele>
        <time>2023-07-23T12:28:50Z</time>
      </trkpt>
      <trkpt lat="42.539069" lon="-2.732446">
        <ele>541.469</ele>
        <time>2023-07-23T12:29:08Z</time>
      </trkpt>
      <trkpt lat="42.538979" lon="-2.732706">
        <ele>537.735</ele>
        <time>2023-07-23T12:29:26Z</time>
      </trkpt>
      <trkpt lat="42.538579" lon="-2.732843">
        <ele>525.787</ele>
        <time>2023-07-23T12:30:13Z</time>
      </trkpt>
      <trkpt lat="42.538438" lon="-2.733113">
        <ele>518.950</ele>
        <time>2023-07-23T12:30:42Z</time>
      </trkpt>
      <trkpt lat="42.538291" lon="-2.732942">
        <ele>516.118</ele>
        <time>2023-07-23T12:31:03Z</time>
      </trkpt>
      <trkpt lat="42.538154" lon="-2.733008">
        <ele>511.347</ele>
        <time>2023-07-23T12:31:17Z</time>
      </trkpt>
      <trkpt lat="42.537628" lon="-2.732776">
        <ele>497.713</ele>
        <time>2023-07-23T12:32:40Z</time>
      </trkpt>
      <trkpt lat="42.537789" lon="-2.731796">
        <ele>492.343</ele>
        <time>2023-07-23T12:33:49Z</time>
      </trkpt>
      <trkpt lat="42.537794" lon="-2.730498">
        <ele>490.907</ele>
        <time>2023-07-23T12:34:53Z</time>
      </trkpt>
      <trkpt lat="42.538100" lon="-2.729218">
        <ele>484.909</ele>
        <time>2023-07-23T12:36:24Z</time>
      </trkpt>
      <trkpt lat="42.538450" lon="-2.728622">
        <ele>482.452</ele>
        <time>2023-07-23T12:37:02Z</time>
      </trkpt>
      <trkpt lat="42.538501" lon="-2.728027">
        <ele>476.335</ele>
        <time>2023-07-23T12:37:34Z</time>
      </trkpt>
      <trkpt lat="42.538811" lon="-2.727520">
        <ele>470.042</ele>
        <time>2023-07-23T12:38:07Z</time>
      </trkpt>
      <trkpt lat="42.538926" lon="-2.726749">
        <ele>465.324</ele>
        <time>2023-07-23T12:38:46Z</time>
      </trkpt>
      <trkpt lat="42.538376" lon="-2.724262">
        <ele>451.890</ele>
        <time>2023-07-23T12:40:58Z</time>
      </trkpt>
      <trkpt lat="42.538055" lon="-2.723674">
        <ele>446.422</ele>
        <time>2023-07-23T12:41:38Z</time>
      </trkpt>
      <trkpt lat="42.537916" lon="-2.722782">
        <ele>440.255</ele>
        <time>2023-07-23T12:42:26Z</time>
      </trkpt>
      <trkpt lat="42.537282" lon="-2.720765">
        <ele>431.253</ele>
        <time>2023-07-23T12:44:16Z</time>
      </trkpt>
      <trkpt lat="42.537086" lon="-2.720499">
        <ele>430.812</ele>
        <time>2023-07-23T12:44:35Z</time>
      </trkpt>
      <trkpt lat="42.536504" lon="-2.720485">
        <ele>431.881</ele>
        <time>2023-07-23T12:45:17Z</time>
      </trkpt>
      <trkpt lat="42.535765" lon="-2.720781">
        <ele>437.461</ele>
        <time>2023-07-23T12:46:11Z</time>
      </trkpt>
      <trkpt lat="42.535056" lon="-2.720840">
        <ele>432.817</ele>
        <time>2023-07-23T12:47:00Z</time>
      </trkpt>
      <trkpt lat="42.534212" lon="-2.721668">
        <ele>429.809</ele>
        <time>2023-07-23T12:48:12Z</time>
      </trkpt>
      <trkpt lat="42.533666" lon="-2.722767">
        <ele>426.759</ele>
        <time>2023-07-23T12:49:19Z</time>
      </trkpt>
      <trkpt lat="42.533117" lon="-2.724719">
        <ele>427.922</ele>
        <time>2023-07-23T12:51:03Z</time>
      </trkpt>
      <trkpt lat="42.532688" lon="-2.727255">
        <ele>428.319</ele>
        <time>2023-07-23T12:53:15Z</time>
      </trkpt>
      <trkpt lat="42.532360" lon="-2.727180">
        <ele>423.681</ele>
        <time>2023-07-23T12:53:46Z</time>
      </trkpt>
      <trkpt lat="42.532680" lon="-2.727324">
        <ele>421.087</ele>
        <time>2023-07-23T12:55:28Z</time>
      </trkpt>
      <trkpt lat="42.531868" lon="-2.732472">
        <ele>422.739</ele>
        <time>2023-07-23T12:59:58Z</time>
      </trkpt>
      <trkpt lat="42.531214" lon="-2.734182">
        <ele>432.392</ele>
        <time>2023-07-23T13:01:47Z</time>
      </trkpt>
      <trkpt lat="42.530345" lon="-2.735244">
        <ele>435.930</ele>
        <time>2023-07-23T13:03:11Z</time>
      </trkpt>
      <trkpt lat="42.530367" lon="-2.736075">
        <ele>445.389</ele>
        <time>2023-07-23T13:03:59Z</time>
      </trkpt>
      <trkpt lat="42.529779" lon="-2.737862">
        <ele>437.712</ele>
        <time>2023-07-23T13:05:58Z</time>
      </trkpt>
      <trkpt lat="42.529938" lon="-2.738623">
        <ele>441.932</ele>
        <time>2023-07-23T13:06:50Z</time>
      </trkpt>
      <trkpt lat="42.529845" lon="-2.739241">
        <ele>440.205</ele>
        <time>2023-07-23T13:07:25Z</time>
      </trkpt>
      <trkpt lat="42.530103" lon="-2.740158">
        <ele>441.209</ele>
        <time>2023-07-23T13:08:14Z</time>
      </trkpt>
      <trkpt lat="42.529982" lon="-2.740855">
        <ele>436.842</ele>
        <time>2023-07-23T13:09:02Z</time>
      </trkpt>
      <trkpt lat="42.529113" lon="-2.741867">
        <ele>441.955</ele>
        <time>2023-07-23T13:10:27Z</time>
      </trkpt>
      <trkpt lat="42.528166" lon="-2.742239">
        <ele>449.362</ele>
        <time>2023-07-23T13:11:43Z</time>
      </trkpt>
      <trkpt lat="42.527397" lon="-2.742343">
        <ele>450.194</ele>
        <time>2023-07-23T13:12:43Z</time>
      </trkpt>
      <trkpt lat="42.527012" lon="-2.742732">
        <ele>452.240</ele>
        <time>2023-07-23T13:13:29Z</time>
      </trkpt>
      <trkpt lat="42.526668" lon="-2.743893">
        <ele>451.572</ele>
        <time>2023-07-23T13:14:48Z</time>
      </trkpt>
      <trkpt lat="42.526043" lon="-2.744339">
        <ele>461.185</ele>
        <time>2023-07-23T13:15:44Z</time>
      </trkpt>
      <trkpt lat="42.525116" lon="-2.746105">
        <ele>467.833</ele>
        <time>2023-07-23T13:17:47Z</time>
      </trkpt>
      <trkpt lat="42.524399" lon="-2.746456">
        <ele>473.822</ele>
        <time>2023-07-23T13:18:41Z</time>
      </trkpt>
      <trkpt lat="42.523205" lon="-2.747771">
        <ele>470.424</ele>
        <time>2023-07-23T13:20:32Z</time>
      </trkpt>
      <trkpt lat="42.522919" lon="-2.749136">
        <ele>475.804</ele>
        <time>2023-07-23T13:22:15Z</time>
      </trkpt>
      <trkpt lat="42.521594" lon="-2.748906">
        <ele>471.214</ele>
        <time>2023-07-23T13:24:12Z</time>
      </trkpt>
      <trkpt lat="42.520602" lon="-2.748086">
        <ele>476.609</ele>
        <time>2023-07-23T13:25:47Z</time>
      </trkpt>
      <trkpt lat="42.520050" lon="-2.748803">
        <ele>477.623</ele>
        <time>2023-07-23T13:26:42Z</time>
      </trkpt>
      <trkpt lat="42.517798" lon="-2.749402">
        <ele>478.596</ele>
        <time>2023-07-23T13:29:21Z</time>
      </trkpt>
      <trkpt lat="42.517653" lon="-2.749285">
        <ele>478.463</ele>
        <time>2023-07-23T13:29:33Z</time>
      </trkpt>
      <trkpt lat="42.517398" lon="-2.748421">
        <ele>479.015</ele>
        <time>2023-07-23T13:31:00Z</time>
      </trkpt>
      <trkpt lat="42.516876" lon="-2.748003">
        <ele>484.031</ele>
        <time>2023-07-23T13:32:00Z</time>
      </trkpt>
      <trkpt lat="42.516207" lon="-2.747695">
        <ele>484.113</ele>
        <time>2023-07-23T13:33:32Z</time>
      </trkpt>
      <trkpt lat="42.514975" lon="-2.747343">
        <ele>486.626</ele>
        <time>2023-07-23T13:35:18Z</time>
      </trkpt>
      <trkpt lat="42.513426" lon="-2.748048">
        <ele>488.784</ele>
        <time>2023-07-23T13:37:14Z</time>
      </trkpt>
      <trkpt lat="42.512280" lon="-2.748044">
        <ele>497.943</ele>
        <time>2023-07-23T13:38:43Z</time>
      </trkpt>
      <trkpt lat="42.511328" lon="-2.747707">
        <ele>495.213</ele>
        <time>2023-07-23T13:40:50Z</time>
      </trkpt>
      <trkpt lat="42.511055" lon="-2.746655">
        <ele>495.443</ele>
        <time>2023-07-23T13:42:09Z</time>
      </trkpt>
      <trkpt lat="42.510952" lon="-2.746606">
        <ele>495.507</ele>
        <time>2023-07-23T13:42:17Z</time>
      </trkpt>
      <trkpt lat="42.509180" lon="-2.746792">
        <ele>506.709</ele>
        <time>2023-07-23T13:44:29Z</time>
      </trkpt>
      <trkpt lat="42.507624" lon="-2.747528">
        <ele>501.912</ele>
        <time>2023-07-23T13:46:23Z</time>
      </trkpt>
      <trkpt lat="42.507131" lon="-2.747595">
        <ele>503.455</ele>
        <time>2023-07-23T13:46:58Z</time>
      </trkpt>
      <trkpt lat="42.506938" lon="-2.747797">
        <ele>502.942</ele>
        <time>2023-07-23T13:47:15Z</time>
      </trkpt>
      <trkpt lat="42.506406" lon="-2.747932">
        <ele>502.144</ele>
        <time>2023-07-23T13:48:14Z</time>
      </trkpt>
      <trkpt lat="42.506266" lon="-2.747742">
        <ele>504.040</ele>
        <time>2023-07-23T13:48:33Z</time>
      </trkpt>
      <trkpt lat="42.506371" lon="-2.747963">
        <ele>500.332</ele>
        <time>2023-07-23T13:51:32Z</time>
      </trkpt>
      <trkpt lat="42.500173" lon="-2.749716">
        <ele>520.175</ele>
        <time>2023-07-23T13:59:19Z</time>
      </trkpt>
      <trkpt lat="42.499770" lon="-2.749224">
        <ele>521.623</ele>
        <time>2023-07-23T13:59:58Z</time>
      </trkpt>
      <trkpt lat="42.499409" lon="-2.748430">
        <ele>522.422</ele>
        <time>2023-07-23T14:00:51Z</time>
      </trkpt>
      <trkpt lat="42.499218" lon="-2.748348">
        <ele>522.018</ele>
        <time>2023-07-23T14:01:09Z</time>
      </trkpt>
      <trkpt lat="42.498580" lon="-2.748771">
        <ele>536.598</ele>
        <time>2023-07-23T14:02:11Z</time>
      </trkpt>
      <trkpt lat="42.498051" lon="-2.748596">
        <ele>527.417</ele>
        <time>2023-07-23T14:02:55Z</time>
      </trkpt>
      <trkpt lat="42.497749" lon="-2.748968">
        <ele>536.809</ele>
        <time>2023-07-23T14:03:25Z</time>
      </trkpt>
      <trkpt lat="42.497570" lon="-2.748734">
        <ele>536.862</ele>
        <time>2023-07-23T14:03:53Z</time>
      </trkpt>
    </trkseg>
  </trk></gpx>